Temp: 1.9°C   Baro: 1011.0mb
  Wind: 0.0mph   Dir: N (352°)
  Rain: 4.2mm (0.0mm/hr)
  Solar: 0W/m2  Hum: 82%

Historic data

Bath Spa Weather Station Historical Data
Daily Summary for October 21, 2021 Units:  Metric    English   Both
Daily Weekly Monthly Yearly Custom
  High: Low: Average:
Temperature: 13.1 °C 4.4 °C 9.2 °C
Dew Point: 8.1 °C 3.4 °C 5.8 °C
Humidity: 93% 60% 77%
Wind Speed: 19.6km/h 0km/h 7.4km/h
Wind Gust: 35.4km/h - -
Wind- - WNW
Pressure: 1020.5 hPa 994.8 hPa -
Precipitation: 0 mm    
Historical Graphs
 
 
Tabular Data for October 21, 2021
Time Temperature Dew Point Pressure Wind Wind Speed Wind Gust Humidity Rainfall Rate (Hourly) solar
00:04 8.4 °C 7.8 °C 994.8 hPa NW 9.2 km/h 17.7 km/h 93% 2.29 mm 0 W/m2
00:09 8.4 °C 7.8 °C 995.1 hPa NW 11.3 km/h 19.3 km/h 93% 1.78 mm 0 W/m2
00:14 8.6 °C 7.9 °C 995.1 hPa NW 8.7 km/h 17.7 km/h 93% 1.52 mm 0 W/m2
00:19 8.6 °C 8 °C 995.5 hPa NW 7.2 km/h 19.3 km/h 93% 1.02 mm 0 W/m2
00:24 8.7 °C 8 °C 995.5 hPa NW 7.9 km/h 20.9 km/h 92.4% 0.76 mm 0 W/m2
00:29 8.7 °C 8 °C 995.8 hPa NW 8.4 km/h 20.9 km/h 92% 0.51 mm 0 W/m2
00:34 8.7 °C 8.1 °C 995.8 hPa NW 9.7 km/h 19.3 km/h 92% 0.51 mm 0 W/m2
00:38 8.8 °C 8.1 °C 995.8 hPa WNW 10.1 km/h 19.3 km/h 92% 0.25 mm 0 W/m2
00:44 8.8 °C 8.1 °C 996.2 hPa WNW 14.8 km/h 22.5 km/h 92% 0.25 mm 0 W/m2
00:49 8.9 °C 8.1 °C 996.2 hPa NW 9.7 km/h 24.1 km/h 91.4% 0.25 mm 0 W/m2
00:54 8.9 °C 8 °C 996.5 hPa NW 7.1 km/h 12.9 km/h 91% 0.25 mm 0 W/m2
00:59 8.9 °C 8 °C 996.5 hPa WNW 8 km/h 14.5 km/h 91% 0.25 mm 0 W/m2
01:04 8.9 °C 8 °C 996.5 hPa WNW 9.3 km/h 20.9 km/h 91% 0 mm 0 W/m2
01:09 8.9 °C 7.8 °C 996.8 hPa WNW 6.9 km/h 17.7 km/h 90% 0 mm 0 W/m2
01:14 8.9 °C 7.8 °C 996.8 hPa WNW 7.1 km/h 16.1 km/h 90% 0 mm 0 W/m2
01:19 8.8 °C 7.8 °C 996.8 hPa WNW 9.3 km/h 17.7 km/h 90% 0 mm 0 W/m2
01:24 8.8 °C 7.7 °C 997.2 hPa WNW 7.9 km/h 19.3 km/h 90% 0 mm 0 W/m2
01:29 8.8 °C 7.6 °C 997.5 hPa WNW 9.3 km/h 19.3 km/h 89.2% 0 mm 0 W/m2
01:34 8.8 °C 7.6 °C 997.5 hPa WNW 9 km/h 16.1 km/h 89% 0 mm 0 W/m2
01:38 8.8 °C 7.6 °C 997.9 hPa WNW 7.2 km/h 11.3 km/h 89% 0 mm 0 W/m2
01:44 8.7 °C 7.5 °C 997.9 hPa WNW 7.2 km/h 12.9 km/h 89% 0 mm 0 W/m2
01:49 8.7 °C 7.4 °C 998.2 hPa WNW 4.3 km/h 12.9 km/h 89% 0 mm 0 W/m2
01:54 8.6 °C 7.4 °C 998.2 hPa WNW 3.7 km/h 6.4 km/h 89% 0 mm 0 W/m2
01:59 8.5 °C 7.3 °C 998.2 hPa WNW 3.2 km/h 8 km/h 89% 0 mm 0 W/m2
02:04 8.4 °C 7.2 °C 998.2 hPa WNW 3.7 km/h 11.3 km/h 89% 0 mm 0 W/m2
02:09 8.4 °C 7.2 °C 998.5 hPa WNW 3.4 km/h 6.4 km/h 89% 0 mm 0 W/m2
02:14 8.3 °C 7.2 °C 998.5 hPa WNW 6.1 km/h 11.3 km/h 89% 0 mm 0 W/m2
02:19 8.4 °C 7.2 °C 998.9 hPa WNW 6.6 km/h 16.1 km/h 89% 0 mm 0 W/m2
02:24 8.4 °C 7.2 °C 998.9 hPa WNW 4.8 km/h 14.5 km/h 89% 0 mm 0 W/m2
02:29 8.5 °C 7.3 °C 998.9 hPa WNW 4.7 km/h 9.7 km/h 89% 0 mm 0 W/m2
02:34 8.5 °C 7.3 °C 999.2 hPa WNW 5.3 km/h 8 km/h 89% 0 mm 0 W/m2
02:39 8.6 °C 7.3 °C 999.2 hPa WNW 4.7 km/h 11.3 km/h 89% 0 mm 0 W/m2
02:44 8.6 °C 7.3 °C 999.2 hPa WNW 7.7 km/h 12.9 km/h 89% 0 mm 0 W/m2
02:49 8.5 °C 7.3 °C 999.5 hPa West 7.9 km/h 16.1 km/h 89% 0 mm 0 W/m2
02:54 8.5 °C 7.3 °C 999.5 hPa WNW 9.7 km/h 19.3 km/h 89% 0 mm 0 W/m2
02:59 8.6 °C 7.4 °C 999.5 hPa WNW 11.3 km/h 20.9 km/h 89.2% 0 mm 0 W/m2
03:04 8.7 °C 7.5 °C 999.5 hPa WNW 10.3 km/h 16.1 km/h 89% 0 mm 0 W/m2
03:09 8.8 °C 7.5 °C 999.9 hPa WNW 11.6 km/h 22.5 km/h 88.8% 0 mm 0 W/m2
03:14 8.8 °C 7.4 °C 999.9 hPa WNW 15.1 km/h 25.7 km/h 88% 0 mm 0 W/m2
03:19 8.9 °C 7.4 °C 999.9 hPa WNW 11.3 km/h 25.7 km/h 87.4% 0 mm 0 W/m2
03:24 9 °C 7.4 °C 999.9 hPa WNW 12.9 km/h 24.1 km/h 87% 0 mm 0 W/m2
03:29 9.1 °C 7.5 °C 1000.2 hPa WNW 14.5 km/h 24.1 km/h 87% 0 mm 0 W/m2
03:34 9.1 °C 7.5 °C 1000.2 hPa WNW 12.2 km/h 29 km/h 87% 0 mm 0 W/m2
03:39 9.1 °C 7.4 °C 1000.2 hPa WNW 14.5 km/h 20.9 km/h 87% 0 mm 0 W/m2
03:44 9.1 °C 7.5 °C 1000.2 hPa West 12.4 km/h 27.4 km/h 87% 0 mm 0 W/m2
03:49 9.1 °C 7.4 °C 1000.2 hPa WNW 17.7 km/h 25.7 km/h 86.2% 0 mm 0 W/m2
03:54 9.1 °C 7.4 °C 1000.6 hPa WNW 12.2 km/h 25.7 km/h 86% 0 mm 0 W/m2
03:59 9.1 °C 7.4 °C 1000.6 hPa WNW 10.8 km/h 20.9 km/h 86% 0 mm 0 W/m2
04:04 9.1 °C 7.4 °C 1000.6 hPa WNW 12.6 km/h 22.5 km/h 86% 0 mm 0 W/m2
04:09 9.1 °C 7.2 °C 1000.6 hPa WNW 14.2 km/h 27.4 km/h 85% 0 mm 0 W/m2
04:14 9.1 °C 7.1 °C 1000.6 hPa WNW 14.8 km/h 27.4 km/h 84.2% 0 mm 0 W/m2
04:19 9.2 °C 7.1 °C 1000.9 hPa WNW 11.4 km/h 27.4 km/h 83.6% 0 mm 0 W/m2
04:24 9.3 °C 7.1 °C 1000.9 hPa WNW 9.7 km/h 19.3 km/h 83% 0 mm 0 W/m2
04:29 9.3 °C 7.1 °C 1000.9 hPa WNW 12.4 km/h 17.7 km/h 83% 0 mm 0 W/m2
04:34 9.3 °C 7.1 °C 1000.9 hPa WNW 10.6 km/h 27.4 km/h 82.8% 0 mm 0 W/m2
04:39 9.4 °C 7 °C 1000.9 hPa WNW 10.6 km/h 24.1 km/h 82% 0 mm 0 W/m2
04:44 9.4 °C 7 °C 1001.2 hPa WNW 14.2 km/h 25.7 km/h 82% 0 mm 0 W/m2
04:49 9.4 °C 7.1 °C 1001.2 hPa WNW 9.7 km/h 25.7 km/h 82% 0 mm 0 W/m2
04:54 9.6 °C 7.2 °C 1001.2 hPa WNW 11.6 km/h 20.9 km/h 82% 0 mm 0 W/m2
04:59 9.7 °C 7.3 °C 1001.2 hPa WNW 13.8 km/h 20.9 km/h 82% 0 mm 0 W/m2
05:04 9.8 °C 7.3 °C 1001.2 hPa WNW 14.5 km/h 24.1 km/h 81.8% 0 mm 0 W/m2
05:09 9.9 °C 7.3 °C 1001.2 hPa West 19 km/h 30.6 km/h 81% 0 mm 0 W/m2
05:14 10.1 °C 7.6 °C 1001.2 hPa West 13.8 km/h 27.4 km/h 81.8% 0 mm 0 W/m2
05:19 10.1 °C 7.7 °C 1001.2 hPa WNW 16.1 km/h 25.7 km/h 82% 0 mm 0 W/m2
05:24 10.2 °C 7.8 °C 1001.6 hPa WNW 14.8 km/h 29 km/h 82% 0 mm 0 W/m2
05:29 10.2 °C 7.8 °C 1001.6 hPa WNW 19 km/h 30.6 km/h 82.4% 0 mm 0 W/m2
05:34 10.2 °C 7.8 °C 1001.9 hPa WNW 12.2 km/h 25.7 km/h 83% 0 mm 0 W/m2
05:39 10.1 °C 7.8 °C 1001.9 hPa WNW 14.2 km/h 20.9 km/h 83.4% 0 mm 0 W/m2
05:44 9.9 °C 7.8 °C 1001.9 hPa WNW 16.6 km/h 24.1 km/h 84% 0 mm 0 W/m2
05:49 9.9 °C 7.8 °C 1002.3 hPa WNW 9.7 km/h 24.1 km/h 84.2% 0 mm 0 W/m2
05:54 9.8 °C 7.9 °C 1002.6 hPa WNW 12.6 km/h 17.7 km/h 85% 0 mm 0 W/m2
05:59 9.8 °C 7.9 °C 1002.9 hPa WNW 10 km/h 24.1 km/h 85% 0 mm 0 W/m2
06:04 9.8 °C 7.9 °C 1002.9 hPa WNW 10.8 km/h 29 km/h 85% 0 mm 0 W/m2
06:09 9.8 °C 7.9 °C 1002.9 hPa NW 12.2 km/h 29 km/h 85% 0 mm 0 W/m2
06:14 9.7 °C 7.6 °C 1002.9 hPa WNW 12.6 km/h 27.4 km/h 84% 0 mm 0 W/m2
06:19 9.6 °C 7.5 °C 1003.3 hPa NW 11.9 km/h 22.5 km/h 84% 0 mm 0 W/m2
06:24 9.5 °C 7.4 °C 1003.3 hPa WNW 8.7 km/h 19.3 km/h 84% 0 mm 0 W/m2
06:29 9.4 °C 7.2 °C 1003.6 hPa NW 8.7 km/h 19.3 km/h 83.4% 0 mm 0 W/m2
06:34 9.3 °C 7.1 °C 1003.9 hPa WNW 13.8 km/h 27.4 km/h 83% 0 mm 0 W/m2
06:39 9.3 °C 6.9 °C 1003.9 hPa NW 12.2 km/h 20.9 km/h 82.2% 0 mm 0 W/m2
06:44 9.3 °C 6.8 °C 1004.3 hPa NW 14.6 km/h 27.4 km/h 81.4% 0 mm 0 W/m2
06:49 9.2 °C 6.4 °C 1004.3 hPa NW 9.8 km/h 29 km/h 80% 0 mm 0 W/m2
06:54 9.1 °C 6.2 °C 1004.6 hPa NW 18.7 km/h 30.6 km/h 79.4% 0 mm 0 W/m2
06:59 8.9 °C 5.8 °C 1004.6 hPa NW 18.2 km/h 32.2 km/h 78% 0 mm 0 W/m2
07:04 8.8 °C 5.6 °C 1004.6 hPa NW 13.8 km/h 35.4 km/h 77% 0 mm 0 W/m2
07:09 8.7 °C 5.4 °C 1004.6 hPa NW 9.7 km/h 19.3 km/h 77% 0 mm 0 W/m2
07:14 8.7 °C 5.3 °C 1005 hPa NW 13.8 km/h 25.7 km/h 77% 0 mm 0 W/m2
07:19 8.6 °C 5.1 °C 1005 hPa NW 11.6 km/h 25.7 km/h 76% 0 mm 0 W/m2
07:24 8.6 °C 5.1 °C 1005.3 hPa NW 9.3 km/h 20.9 km/h 76% 0 mm 0 W/m2
07:29 8.4 °C 4.9 °C 1005.3 hPa WNW 8.7 km/h 16.1 km/h 76% 0 mm 0 W/m2
07:34 8.3 °C 4.8 °C 1005.3 hPa NW 11.4 km/h 24.1 km/h 76% 0 mm 0 W/m2
07:39 8.3 °C 4.7 °C 1005.6 hPa WNW 10 km/h 27.4 km/h 75.4% 0 mm 0 W/m2
07:44 8.3 °C 4.6 °C 1006 hPa NW 11.3 km/h 19.3 km/h 75% 0 mm 0 W/m2
07:49 8.2 °C 4.6 °C 1006.3 hPa NW 9.8 km/h 17.7 km/h 75% 0 mm 5 W/m2
07:54 8.2 °C 4.5 °C 1006.3 hPa NW 12.6 km/h 19.3 km/h 75% 0 mm 9 W/m2
07:59 8.1 °C 4.3 °C 1006.7 hPa NW 10.8 km/h 24.1 km/h 74.2% 0 mm 9 W/m2
08:04 8.1 °C 4.2 °C 1006.7 hPa NW 12.9 km/h 24.1 km/h 74% 0 mm 12 W/m2
08:09 7.9 °C 4.1 °C 1006.7 hPa WNW 10.1 km/h 22.5 km/h 74% 0 mm 12 W/m2
08:14 7.9 °C 4 °C 1007 hPa NW 8.7 km/h 17.7 km/h 74% 0 mm 16 W/m2
08:19 7.8 °C 3.8 °C 1007.3 hPa NW 5.8 km/h 17.7 km/h 74% 0 mm 19 W/m2
08:24 7.7 °C 4 °C 1007.3 hPa NW 4 km/h 11.3 km/h 75% 0 mm 19 W/m2
08:29 7.6 °C 3.9 °C 1007.7 hPa NNW 10.9 km/h 17.7 km/h 75% 0 mm 23 W/m2
08:34 7.7 °C 3.8 °C 1007.7 hPa NW 6.9 km/h 17.7 km/h 74% 0 mm 23 W/m2
08:39 7.7 °C 3.8 °C 1008 hPa NNW 5.5 km/h 12.9 km/h 74% 0 mm 25 W/m2
08:44 7.7 °C 3.6 °C 1008.4 hPa NNW 4.8 km/h 14.5 km/h 73% 0 mm 26 W/m2
08:49 7.7 °C 3.8 °C 1008.4 hPa NW 7.9 km/h 14.5 km/h 74% 0 mm 26 W/m2
08:54 7.7 °C 3.7 °C 1008.7 hPa NW 6.1 km/h 11.3 km/h 73.8% 0 mm 28 W/m2
08:59 7.7 °C 3.7 °C 1008.7 hPa WNW 8 km/h 12.9 km/h 73.2% 0 mm 30 W/m2
09:04 7.8 °C 3.8 °C 1009 hPa WNW 5.8 km/h 12.9 km/h 73.2% 0 mm 33 W/m2
09:09 7.8 °C 3.7 °C 1009 hPa WNW 7.1 km/h 11.3 km/h 73% 0 mm 39 W/m2
09:14 7.8 °C 3.6 °C 1009 hPa WNW 8.2 km/h 19.3 km/h 72.4% 0 mm 49 W/m2
09:19 7.9 °C 3.7 °C 1009.4 hPa NW 6 km/h 14.5 km/h 72.6% 0 mm 62 W/m2
09:24 7.9 °C 3.7 °C 1009.4 hPa NW 8.4 km/h 19.3 km/h 72.2% 0 mm 74 W/m2
09:29 8.1 °C 3.8 °C 1009.7 hPa NW 7.7 km/h 20.9 km/h 72% 0 mm 90 W/m2
09:34 8.1 °C 3.6 °C 1009.7 hPa WNW 13.8 km/h 22.5 km/h 71% 0 mm 105 W/m2
09:39 8.2 °C 3.7 °C 1009.7 hPa WNW 7.9 km/h 20.9 km/h 71.2% 0 mm 121 W/m2
09:44 8.2 °C 3.8 °C 1010 hPa NW 9.8 km/h 19.3 km/h 71.2% 0 mm 137 W/m2
09:49 8.4 °C 3.9 °C 1010 hPa NW 6.8 km/h 14.5 km/h 71.4% 0 mm 151 W/m2
09:54 8.6 °C 4.1 °C 1010 hPa NW 6.8 km/h 19.3 km/h 71.2% 0 mm 167 W/m2
09:59 8.7 °C 4.2 °C 1010 hPa NW 9 km/h 19.3 km/h 71% 0 mm 181 W/m2
10:04 8.8 °C 4.2 °C 1010.4 hPa NW 7.2 km/h 14.5 km/h 70.8% 0 mm 195 W/m2
10:09 8.8 °C 4.2 °C 1010.4 hPa NW 8 km/h 20.9 km/h 70% 0 mm 209 W/m2
10:14 8.8 °C 4.1 °C 1010.4 hPa NW 12.1 km/h 20.9 km/h 69.8% 0 mm 218 W/m2
10:19 9 °C 4.2 °C 1010.7 hPa NNW 10.3 km/h 17.7 km/h 69.6% 0 mm 229 W/m2
10:24 9.1 °C 4.3 °C 1010.7 hPa NW 14.5 km/h 22.5 km/h 69.2% 0 mm 243 W/m2
10:29 9.2 °C 4.5 °C 1010.7 hPa NNW 9.3 km/h 17.7 km/h 70% 0 mm 253 W/m2
10:34 9.3 °C 4.4 °C 1010.7 hPa NW 11.3 km/h 24.1 km/h 69% 0 mm 267 W/m2
10:39 9.3 °C 4.4 °C 1011.1 hPa NW 11.9 km/h 22.5 km/h 69% 0 mm 278 W/m2
10:44 9.4 °C 4.4 °C 1011.1 hPa NW 15.1 km/h 25.7 km/h 68.6% 0 mm 288 W/m2
10:49 9.5 °C 4.6 °C 1011.1 hPa NW 6.4 km/h 22.5 km/h 68.8% 0 mm 297 W/m2
10:54 9.8 °C 4.8 °C 1011.4 hPa North 11.6 km/h 22.5 km/h 68.8% 0 mm 309 W/m2
10:59 9.7 °C 4.5 °C 1011.4 hPa NNW 12.1 km/h 22.5 km/h 67.6% 0 mm 322 W/m2
11:04 9.8 °C 4.7 °C 1011.7 hPa NW 14 km/h 20.9 km/h 68.2% 0 mm 338 W/m2
11:09 9.8 °C 4.7 °C 1011.7 hPa NW 13.8 km/h 22.5 km/h 68% 0 mm 339 W/m2
11:14 9.9 °C 4.6 °C 1011.7 hPa NW 12.9 km/h 24.1 km/h 67.4% 0 mm 353 W/m2
11:19 9.9 °C 4.6 °C 1011.7 hPa NW 14.5 km/h 24.1 km/h 67.6% 0 mm 359 W/m2
11:24 10 °C 4.7 °C 1012.1 hPa NNW 9.3 km/h 17.7 km/h 67.6% 0 mm 367 W/m2
11:29 10.2 °C 4.9 °C 1012.1 hPa NW 6.6 km/h 20.9 km/h 67.8% 0 mm 376 W/m2
11:34 10.4 °C 5.2 °C 1012.1 hPa NNW 7.2 km/h 16.1 km/h 67.8% 0 mm 381 W/m2
11:39 10.4 °C 4.9 °C 1012.4 hPa NNW 13.5 km/h 24.1 km/h 66.4% 0 mm 392 W/m2
11:44 10.2 °C 4.7 °C 1012.4 hPa NNW 12.9 km/h 24.1 km/h 66.2% 0 mm 399 W/m2
11:49 10.3 °C 4.8 °C 1012.4 hPa NNW 14.2 km/h 24.1 km/h 66.6% 0 mm 406 W/m2
11:54 10.3 °C 4.8 °C 1012.4 hPa NNW 19.6 km/h 25.7 km/h 66.4% 0 mm 413 W/m2
11:59 10.4 °C 4.9 °C 1012.8 hPa NNW 9.2 km/h 24.1 km/h 66.4% 0 mm 424 W/m2
12:04 10.8 °C 5.4 °C 1012.8 hPa NW 7.2 km/h 14.5 km/h 66.8% 0 mm 439 W/m2
12:09 10.8 °C 5.2 °C 1012.8 hPa WNW 11.9 km/h 20.9 km/h 65.8% 0 mm 448 W/m2
12:14 10.7 °C 5.2 °C 1013.1 hPa NW 10 km/h 19.3 km/h 66.4% 0 mm 448 W/m2
12:19 10.8 °C 5.3 °C 1013.1 hPa NW 12.1 km/h 22.5 km/h 66.2% 0 mm 436 W/m2
12:24 11.1 °C 5.7 °C 1013.1 hPa NW 9.8 km/h 19.3 km/h 66.8% 0 mm 443 W/m2
12:29 11.3 °C 5.7 °C 1013.1 hPa WNW 8.7 km/h 20.9 km/h 66.2% 0 mm 443 W/m2
12:34 11.2 °C 5.6 °C 1013.1 hPa NW 10.3 km/h 17.7 km/h 65.8% 0 mm 439 W/m2
12:39 11.3 °C 5.8 °C 1013.1 hPa NW 6.8 km/h 14.5 km/h 66.5% 0 mm 454 W/m2
12:44 11.6 °C 5.8 °C 1013.4 hPa North 9.2 km/h 16.1 km/h 65.8% 0 mm 478 W/m2
12:49 11.8 °C 5.8 °C 1013.4 hPa North 8.4 km/h 14.5 km/h 64.8% 0 mm 480 W/m2
12:54 11.6 °C 5.6 °C 1013.4 hPa NNW 7.7 km/h 17.7 km/h 64.8% 0 mm 482 W/m2
12:59 11.4 °C 5.6 °C 1013.4 hPa NNW 9.3 km/h 14.5 km/h 65.2% 0 mm 478 W/m2
13:04 11.6 °C 5.8 °C 1013.4 hPa NNE 10.6 km/h 19.3 km/h 65.4% 0 mm 487 W/m2
13:09 11.3 °C 5.4 °C 1013.8 hPa North 10.5 km/h 19.3 km/h 65% 0 mm 494 W/m2
13:14 11.5 °C 5.7 °C 1013.8 hPa North 11.3 km/h 17.7 km/h 65.4% 0 mm 489 W/m2
13:19 11.7 °C 5.7 °C 1013.8 hPa North 10.9 km/h 17.7 km/h 64.6% 0 mm 469 W/m2
13:24 11.6 °C 5.7 °C 1013.8 hPa North 11.9 km/h 22.5 km/h 64.8% 0 mm 480 W/m2
13:29 11.5 °C 5.6 °C 1013.8 hPa NNW 10.9 km/h 22.5 km/h 65% 0 mm 485 W/m2
13:34 11.4 °C 5.7 °C 1013.8 hPa NNW 10.6 km/h 19.3 km/h 65.6% 0 mm 466 W/m2
13:39 11.7 °C 5.8 °C 1014.1 hPa NNW 6.4 km/h 17.7 km/h 64.8% 0 mm 483 W/m2
13:44 11.9 °C 6.1 °C 1014.1 hPa North 10.6 km/h 19.3 km/h 65.2% 0 mm 501 W/m2
13:49 11.9 °C 6 °C 1014.1 hPa North 9.8 km/h 17.7 km/h 65.2% 0 mm 501 W/m2
13:54 11.8 °C 5.8 °C 1014.1 hPa NNW 9.2 km/h 17.7 km/h 64.4% 0 mm 469 W/m2
13:59 11.8 °C 5.9 °C 1014.4 hPa NW 10 km/h 19.3 km/h 65% 0 mm 450 W/m2
14:04 11.9 °C 5.9 °C 1014.4 hPa NW 8.7 km/h 19.3 km/h 64.6% 0 mm 459 W/m2
14:08 12 °C 6.1 °C 1014.4 hPa North 8.9 km/h 20.9 km/h 64.8% 0 mm 457 W/m2
14:14 12.3 °C 6.3 °C 1014.4 hPa North 5.8 km/h 14.5 km/h 64.6% 0 mm 482 W/m2
14:19 12.5 °C 6.3 °C 1014.4 hPa NW 6.4 km/h 17.7 km/h 64% 0 mm 475 W/m2
14:24 12.2 °C 6.1 °C 1014.4 hPa North 10.3 km/h 16.1 km/h 64.2% 0 mm 418 W/m2
14:29 11.8 °C 5.7 °C 1014.4 hPa NNW 10.9 km/h 19.3 km/h 64.2% 0 mm 424 W/m2
14:34 11.8 °C 6 °C 1014.4 hPa NW 6.4 km/h 12.9 km/h 65.4% 0 mm 424 W/m2
14:39 12 °C 6.1 °C 1014.4 hPa NW 5.3 km/h 14.5 km/h 65% 0 mm 403 W/m2
14:44 12.5 °C 6.5 °C 1014.8 hPa NW 4.8 km/h 8 km/h 64.6% 0 mm 406 W/m2
14:49 12.8 °C 6.5 °C 1014.8 hPa NNW 10.6 km/h 19.3 km/h 63.6% 0 mm 396 W/m2
14:54 12.5 °C 6 °C 1015.1 hPa North 9.7 km/h 19.3 km/h 62.4% 0 mm 388 W/m2
14:59 12.4 °C 5.8 °C 1015.1 hPa NNW 10.9 km/h 19.3 km/h 62% 0 mm 376 W/m2
15:04 12.3 °C 5.8 °C 1015.1 hPa NW 9.3 km/h 14.5 km/h 62.6% 0 mm 376 W/m2
15:09 12.3 °C 5.8 °C 1015.1 hPa NW 7.4 km/h 12.9 km/h 62.4% 0 mm 360 W/m2
15:14 12.6 °C 6.2 °C 1015.1 hPa NW 7.7 km/h 14.5 km/h 62.8% 0 mm 360 W/m2
15:19 12.7 °C 6.1 °C 1015.1 hPa WNW 5.1 km/h 11.3 km/h 62.3% 0 mm 359 W/m2
15:24 12.7 °C 6.2 °C 1015.1 hPa NW 7.7 km/h 14.5 km/h 62.6% 0 mm 357 W/m2
15:29 12.6 °C 6 °C 1015.1 hPa NW 7.6 km/h 12.9 km/h 62% 0 mm 334 W/m2
15:34 12.6 °C 6.1 °C 1015.5 hPa WNW 9.2 km/h 16.1 km/h 62.2% 0 mm 388 W/m2
15:39 12.8 °C 6.3 °C 1015.5 hPa WNW 5.5 km/h 12.9 km/h 63% 0 mm 392 W/m2
15:44 13 °C 6.3 °C 1015.5 hPa WNW 7.9 km/h 17.7 km/h 61.8% 0 mm 369 W/m2
15:49 12.8 °C 6.1 °C 1015.5 hPa West 6.9 km/h 17.7 km/h 61.8% 0 mm 302 W/m2
15:54 12.8 °C 6.3 °C 1015.5 hPa WNW 6.8 km/h 17.7 km/h 62.4% 0 mm 276 W/m2
15:59 13.1 °C 6.5 °C 1015.5 hPa WNW 5.3 km/h 12.9 km/h 62.2% 0 mm 257 W/m2
16:04 12.7 °C 6.3 °C 1015.5 hPa WNW 8.4 km/h 12.9 km/h 62.6% 0 mm 241 W/m2
16:09 12.7 °C 6.3 °C 1015.8 hPa WNW 6.6 km/h 11.3 km/h 63.2% 0 mm 229 W/m2
16:14 12.8 °C 6.4 °C 1015.8 hPa WNW 5.1 km/h 9.7 km/h 62.8% 0 mm 218 W/m2
16:19 12.8 °C 6.1 °C 1015.8 hPa WNW 7.1 km/h 12.9 km/h 61.4% 0 mm 204 W/m2
16:24 12.8 °C 5.9 °C 1016.1 hPa WNW 4.5 km/h 9.7 km/h 61.2% 0 mm 190 W/m2
16:29 12.8 °C 5.9 °C 1016.1 hPa WNW 6.9 km/h 12.9 km/h 60.6% 0 mm 174 W/m2
16:34 12.7 °C 5.6 °C 1016.1 hPa WNW 6.6 km/h 9.7 km/h 60% 0 mm 162 W/m2
16:39 12.7 °C 5.7 °C 1016.1 hPa WNW 4.8 km/h 8 km/h 61% 0 mm 148 W/m2
16:44 12.7 °C 5.7 °C 1016.1 hPa WNW 5.5 km/h 11.3 km/h 60.4% 0 mm 81 W/m2
16:49 12.4 °C 5.7 °C 1016.1 hPa WNW 5.1 km/h 11.3 km/h 61.2% 0 mm 111 W/m2
16:54 12.3 °C 5.7 °C 1016.1 hPa WNW 5.3 km/h 8 km/h 61.8% 0 mm 46 W/m2
16:59 12.2 °C 5.6 °C 1016.1 hPa WNW 6.8 km/h 14.5 km/h 62.2% 0 mm 42 W/m2
17:04 12.1 °C 5.7 °C 1016.5 hPa WNW 3.2 km/h 8 km/h 63% 0 mm 42 W/m2
17:09 11.8 °C 5.8 °C 1016.5 hPa WNW 1.9 km/h 6.4 km/h 64.4% 0 mm 32 W/m2
17:14 11.7 °C 5.7 °C 1016.5 hPa WNW 2.6 km/h 9.7 km/h 64.6% 0 mm 30 W/m2
17:19 11.7 °C 5.8 °C 1016.5 hPa WNW 0.3 km/h 4.8 km/h 65.4% 0 mm 40 W/m2
17:24 11.6 °C 6.2 °C 1016.5 hPa WNW 0.8 km/h 3.2 km/h 66.8% 0 mm 35 W/m2
17:29 11.5 °C 6.2 °C 1016.5 hPa WNW 1.3 km/h 3.2 km/h 67.4% 0 mm 19 W/m2
17:34 11.3 °C 6.2 °C 1016.5 hPa WNW 1.4 km/h 3.2 km/h 68.4% 0 mm 18 W/m2
17:39 10.9 °C 6.1 °C 1016.5 hPa WNW 2.1 km/h 3.2 km/h 69.4% 0 mm 16 W/m2
17:44 10.7 °C 6 °C 1016.8 hPa WNW 2.7 km/h 4.8 km/h 70.4% 0 mm 18 W/m2
17:49 10.5 °C 6.2 °C 1016.8 hPa WNW 3.2 km/h 4.8 km/h 72% 0 mm 14 W/m2
17:54 10.3 °C 6.3 °C 1016.8 hPa WNW 3.2 km/h 4.8 km/h 73.4% 0 mm 11 W/m2
17:59 10.2 °C 6.3 °C 1016.8 hPa WNW 4.3 km/h 6.4 km/h 74.4% 0 mm 7 W/m2
18:04 9.9 °C 6.3 °C 1016.8 hPa WNW 5.1 km/h 6.4 km/h 75% 0 mm 0 W/m2
18:09 9.7 °C 6.1 °C 1017.2 hPa WNW 1.8 km/h 6.4 km/h 75.2% 0 mm 0 W/m2
18:14 9.6 °C 6.1 °C 1017.2 hPa WNW 3.9 km/h 4.8 km/h 75.8% 0 mm 0 W/m2
18:19 9.6 °C 6.2 °C 1017.2 hPa WNW 2.7 km/h 4.8 km/h 76.4% 0 mm 0 W/m2
18:24 9.5 °C 6.2 °C 1017.5 hPa WNW 4.5 km/h 6.4 km/h 77% 0 mm 0 W/m2
18:29 9.4 °C 6.1 °C 1017.5 hPa WNW 4.5 km/h 6.4 km/h 77% 0 mm 0 W/m2
18:34 9.4 °C 6.1 °C 1017.5 hPa WNW 3.5 km/h 6.4 km/h 77% 0 mm 0 W/m2
18:39 9.3 °C 6.1 °C 1017.5 hPa WNW 1.4 km/h 4.8 km/h 78% 0 mm 0 W/m2
18:44 9.2 °C 6 °C 1017.8 hPa WNW 0.3 km/h 3.2 km/h 78% 0 mm 0 W/m2
18:49 9.1 °C 6 °C 1017.8 hPa WNW 1 km/h 3.2 km/h 78% 0 mm 0 W/m2
18:54 9.1 °C 5.9 °C 1017.8 hPa WNW 1.9 km/h 4.8 km/h 78% 0 mm 0 W/m2
18:59 8.9 °C 5.8 °C 1017.8 hPa WNW 1.3 km/h 3.2 km/h 78.4% 0 mm 0 W/m2
19:04 8.8 °C 5.8 °C 1018.2 hPa WNW 1.9 km/h 3.2 km/h 78.4% 0 mm 0 W/m2
19:09 8.7 °C 5.7 °C 1018.2 hPa WNW 1.8 km/h 3.2 km/h 78.8% 0 mm 0 W/m2
19:14 8.5 °C 5.6 °C 1018.2 hPa WNW 2.6 km/h 3.2 km/h 79% 0 mm 0 W/m2
19:19 8.5 °C 5.6 °C 1018.2 hPa WNW 1.4 km/h 6.4 km/h 79% 0 mm 0 W/m2
19:24 8.4 °C 5.5 °C 1018.5 hPa WNW 1.1 km/h 6.4 km/h 79% 0 mm 0 W/m2
19:29 8.4 °C 5.5 °C 1018.5 hPa WNW 4 km/h 6.4 km/h 79% 0 mm 0 W/m2
19:34 8.4 °C 5.5 °C 1018.5 hPa WNW 5.6 km/h 9.7 km/h 79% 0 mm 0 W/m2
19:39 8.6 °C 5.7 °C 1018.5 hPa WNW 3.4 km/h 8 km/h 79% 0 mm 0 W/m2
19:44 8.6 °C 5.7 °C 1018.5 hPa WNW 3.2 km/h 6.4 km/h 79% 0 mm 0 W/m2
19:49 8.6 °C 5.7 °C 1018.8 hPa WNW 1.8 km/h 6.4 km/h 79% 0 mm 0 W/m2
19:54 8.6 °C 5.7 °C 1018.8 hPa WNW 3.5 km/h 11.3 km/h 79% 0 mm 0 W/m2
19:59 8.4 °C 5.5 °C 1018.8 hPa WNW 2.1 km/h 3.2 km/h 79% 0 mm 0 W/m2
20:04 8.2 °C 5.4 °C 1018.8 hPa WNW 0.3 km/h 3.2 km/h 79.6% 0 mm 0 W/m2
20:09 8.2 °C 5.4 °C 1018.8 hPa WNW 0.6 km/h 3.2 km/h 80% 0 mm 0 W/m2
20:14 8.1 °C 5.3 °C 1018.8 hPa WNW 0.6 km/h 3.2 km/h 80% 0 mm 0 W/m2
20:19 8.1 °C 5.3 °C 1018.8 hPa WNW 1.4 km/h 3.2 km/h 80% 0 mm 0 W/m2
20:24 7.8 °C 5.2 °C 1018.8 hPa WNW 2.6 km/h 3.2 km/h 81% 0 mm 0 W/m2
20:29 7.7 °C 5.1 °C 1018.8 hPa WNW 1.8 km/h 3.2 km/h 81.2% 0 mm 0 W/m2
20:34 7.4 °C 5.1 °C 1019.2 hPa WNW 1.4 km/h 3.2 km/h 82% 0 mm 0 W/m2
20:39 7.3 °C 4.9 °C 1019.2 hPa Calm   3.2 km/h 82.2% 0 mm 0 W/m2
20:44 7.2 °C 5.1 °C 1019.2 hPa Calm   1.6 km/h 83% 0 mm 0 W/m2
20:49 7 °C 4.8 °C 1019.2 hPa WNW 1.1 km/h 1.6 km/h 83% 0 mm 0 W/m2
20:54 6.9 °C 4.9 °C 1019.2 hPa WNW 1.9 km/h 3.2 km/h 84% 0 mm 0 W/m2
20:59 6.8 °C 4.8 °C 1019.2 hPa WNW 1.4 km/h 3.2 km/h 84% 0 mm 0 W/m2
21:04 6.7 °C 4.8 °C 1019.2 hPa WNW 0.3 km/h 1.6 km/h 84.6% 0 mm 0 W/m2
21:09 6.6 °C 4.7 °C 1019.2 hPa WNW 1.9 km/h 3.2 km/h 85% 0 mm 0 W/m2
21:14 6.4 °C 4.7 °C 1019.2 hPa WNW 2.6 km/h 4.8 km/h 85% 0 mm 0 W/m2
21:19 6.4 °C 4.6 °C 1019.2 hPa WNW 2.6 km/h 3.2 km/h 85.2% 0 mm 0 W/m2
21:24 6.3 °C 4.6 °C 1019.5 hPa WNW 1.3 km/h 3.2 km/h 86% 0 mm 0 W/m2
21:29 6.2 °C 4.5 °C 1019.5 hPa WNW 3.2 km/h 4.8 km/h 86% 0 mm 0 W/m2
21:34 6.2 °C 4.5 °C 1019.5 hPa WNW 1.3 km/h 4.8 km/h 86% 0 mm 0 W/m2
21:39 6.2 °C 4.5 °C 1019.5 hPa Calm     86.2% 0 mm 0 W/m2
21:43 6.1 °C 4.6 °C 1019.5 hPa Calm   1.6 km/h 87% 0 mm 0 W/m2
21:49 6.1 °C 4.6 °C 1019.5 hPa Calm     87% 0 mm 0 W/m2
21:54 6.1 °C 4.6 °C 1019.9 hPa WNW 0.6 km/h 3.2 km/h 87% 0 mm 0 W/m2
21:59 6.1 °C 4.6 °C 1019.9 hPa Calm   1.6 km/h 87% 0 mm 0 W/m2
22:04 5.9 °C 4.4 °C 1019.9 hPa Calm     87% 0 mm 0 W/m2
22:09 5.8 °C 4.3 °C 1019.9 hPa Calm     87% 0 mm 0 W/m2
22:14 5.8 °C 4.4 °C 1020.2 hPa Calm     87.6% 0 mm 0 W/m2
22:19 5.7 °C 4.3 °C 1019.9 hPa WNW 1.3 km/h 3.2 km/h 87.4% 0 mm 0 W/m2
22:24 5.6 °C 4.2 °C 1019.9 hPa WNW 2.1 km/h 4.8 km/h 87.6% 0 mm 0 W/m2
22:29 5.6 °C 4.3 °C 1019.9 hPa WNW 1.3 km/h 3.2 km/h 88% 0 mm 0 W/m2
22:34 5.6 °C 4.3 °C 1019.9 hPa Calm     88% 0 mm 0 W/m2
22:39 5.6 °C 4.3 °C 1019.9 hPa Calm     88% 0 mm 0 W/m2
22:44 5.6 °C 4.3 °C 1019.9 hPa Calm     88.6% 0 mm 0 W/m2
22:49 5.6 °C 4.3 °C 1020.2 hPa Calm     88.6% 0 mm 0 W/m2
22:54 5.4 °C 4.2 °C 1020.2 hPa WNW 1.6 km/h 3.2 km/h 88% 0 mm 0 W/m2
22:59 5.3 °C 4.1 °C 1020.2 hPa WNW 2.6 km/h 3.2 km/h 89% 0 mm 0 W/m2
23:04 5.2 °C 4.1 °C 1020.2 hPa WNW 2.6 km/h 3.2 km/h 89% 0 mm 0 W/m2
23:09 5.2 °C 3.9 °C 1020.2 hPa WNW 0.6 km/h 3.2 km/h 89% 0 mm 0 W/m2
23:14 5.1 °C 3.9 °C 1020.2 hPa WNW 1.3 km/h 3.2 km/h 89% 0 mm 0 W/m2
23:19 5 °C 3.8 °C 1020.2 hPa Calm     89% 0 mm 0 W/m2
23:24 4.8 °C 3.6 °C 1020.2 hPa Calm     89% 0 mm 0 W/m2
23:29 4.7 °C 3.5 °C 1020.2 hPa Calm     89% 0 mm 0 W/m2
23:34 4.7 °C 3.6 °C 1020.2 hPa Calm     89.6% 0 mm 0 W/m2
23:39 4.7 °C 3.7 °C 1020.2 hPa Calm     90% 0 mm 0 W/m2
23:44 4.7 °C 3.7 °C 1020.2 hPa Calm     90% 0 mm 0 W/m2
23:49 4.6 °C 3.6 °C 1020.2 hPa Calm     90% 0 mm 0 W/m2
23:54 4.4 °C 3.4 °C 1020.2 hPa Calm     90% 0 mm 0 W/m2
23:59 4.4 °C 3.4 °C 1020.5 hPa Calm     90% 0 mm 0 W/m2
Bath Spa Weather
Compliments of Weather Underground - 2 mb